createdAt,value
2022-09-29T00:00:08.645Z,62.21
2022-09-29T00:05:31.766Z,62.38
2022-09-29T00:10:34.857Z,62.60
2022-09-29T00:15:38.034Z,62.67
2022-09-29T00:20:40.974Z,62.80
2022-09-29T00:25:43.924Z,63.02
2022-09-29T00:30:46.814Z,63.33
2022-09-29T00:36:05.479Z,63.31
2022-09-29T00:41:13.322Z,63.44
2022-09-29T00:46:19.436Z,63.20
2022-09-29T00:51:22.722Z,63.46
2022-09-29T00:56:25.802Z,63.40
2022-09-29T01:01:38.266Z,63.42
2022-09-29T01:07:37.924Z,63.33
2022-09-29T01:12:42.220Z,63.08
2022-09-29T01:17:47.497Z,62.98
2022-09-29T01:23:27.813Z,63.04
2022-09-29T01:29:10.060Z,62.77
2022-09-29T01:34:24.800Z,62.53
2022-09-29T01:39:36.487Z,62.41
2022-09-29T01:45:00.288Z,62.31
2022-09-29T01:50:08.801Z,62.21
2022-09-29T01:55:27.004Z,62.36
2022-09-29T02:00:35.425Z,62.28
2022-09-29T02:05:52.221Z,62.41
2022-09-29T02:11:06.556Z,62.50
2022-09-29T02:16:12.636Z,62.50
2022-09-29T02:21:15.561Z,62.69
2022-09-29T02:26:20.025Z,62.62
2022-09-29T02:31:23.817Z,62.61
2022-09-29T02:36:43.388Z,62.34
2022-09-29T02:42:05.809Z,62.32
2022-09-29T02:47:16.577Z,62.09
2022-09-29T02:52:38.315Z,62.02
2022-09-29T02:57:41.713Z,62.23
2022-09-29T03:02:45.606Z,62.39
2022-09-29T03:07:48.610Z,62.37
2022-09-29T03:12:51.493Z,62.57
2022-09-29T03:17:57.427Z,62.58
2022-09-29T03:23:00.414Z,62.75
2022-09-29T03:28:03.589Z,62.57
2022-09-29T03:33:06.591Z,62.80
2022-09-29T03:38:09.463Z,62.78
2022-09-29T03:43:13.180Z,62.73
2022-09-29T03:48:16.594Z,62.87
2022-09-29T03:53:19.453Z,62.80
2022-09-29T03:58:22.432Z,63.07
2022-09-29T04:03:25.511Z,63.18
2022-09-29T04:08:28.361Z,63.40
2022-09-29T04:13:31.439Z,63.59
2022-09-29T04:18:34.656Z,63.60
2022-09-29T04:23:38.570Z,63.62
2022-09-29T04:28:41.880Z,63.63
2022-09-29T04:33:44.959Z,63.65
2022-09-29T04:38:49.665Z,63.71
2022-09-29T04:43:52.645Z,63.73
2022-09-29T04:48:55.454Z,63.75
2022-09-29T04:53:59.290Z,63.79
2022-09-29T04:59:02.343Z,63.91
2022-09-29T05:04:05.723Z,64.07
2022-09-29T05:09:09.291Z,64.07
2022-09-29T05:14:12.170Z,64.25
2022-09-29T05:19:15.196Z,64.37
2022-09-29T05:24:18.275Z,64.36
2022-09-29T05:29:21.305Z,64.34
2022-09-29T05:34:24.232Z,64.62
2022-09-29T05:39:27.356Z,64.25
2022-09-29T05:44:30.179Z,64.26
2022-09-29T05:49:33.765Z,64.08
2022-09-29T05:54:38.193Z,64.15
2022-09-29T05:59:41.739Z,63.94
2022-09-29T06:04:44.938Z,63.94
2022-09-29T06:09:49.109Z,63.97
2022-09-29T06:14:53.023Z,63.85
2022-09-29T06:19:56.122Z,64.06
2022-09-29T06:25:02.154Z,63.91
2022-09-29T06:30:09.745Z,63.85
2022-09-29T06:35:32.537Z,63.99
2022-09-29T06:40:36.064Z,64.47
2022-09-29T06:45:40.490Z,64.52
2022-09-29T06:50:45.592Z,64.72
2022-09-29T06:55:57.263Z,65.04
2022-09-29T07:01:02.487Z,64.96
2022-09-29T07:06:19.318Z,64.80
2022-09-29T07:11:23.807Z,64.65
2022-09-29T07:16:30.572Z,64.89
2022-09-29T07:21:35.299Z,64.90
2022-09-29T07:26:39.992Z,64.95
2022-09-29T07:31:50.606Z,65.28
2022-09-29T07:36:57.216Z,65.30
2022-09-29T07:42:01.042Z,65.24
2022-09-29T07:47:04.710Z,65.32
2022-09-29T07:52:09.446Z,65.37
2022-09-29T07:57:13.019Z,65.12
2022-09-29T08:02:16.184Z,65.19
2022-09-29T08:07:20.874Z,65.11
2022-09-29T08:12:26.786Z,65.21
2022-09-29T08:17:37.035Z,65.40
2022-09-29T08:22:40.405Z,65.46
2022-09-29T08:27:53.880Z,65.69
2022-09-29T08:33:00.586Z,65.32
2022-09-29T08:38:05.682Z,65.03
2022-09-29T08:43:32.311Z,65.14
2022-09-29T08:48:53.187Z,65.06
2022-09-29T08:54:08.687Z,65.40
2022-09-29T08:59:13.381Z,65.22
2022-09-29T09:04:48.469Z,65.33
2022-09-29T09:10:07.589Z,65.48
2022-09-29T09:15:42.597Z,65.33
2022-09-29T09:21:09.920Z,65.47
2022-09-29T09:26:15.422Z,65.39
2022-09-29T09:31:23.808Z,65.23
2022-09-29T09:36:40.433Z,65.33
2022-09-29T09:41:52.361Z,65.10
2022-09-29T09:47:05.571Z,65.05
2022-09-29T09:52:38.984Z,64.93
2022-09-29T09:58:20.668Z,64.80
2022-09-29T10:03:25.280Z,64.70
2022-09-29T10:08:32.963Z,64.79
2022-09-29T10:13:36.871Z,64.45
2022-09-29T10:18:46.049Z,64.31
2022-09-29T10:23:55.042Z,64.44
2022-09-29T10:29:02.811Z,64.31
2022-09-29T10:34:13.965Z,63.71
2022-09-29T10:39:33.691Z,63.63
2022-09-29T10:44:40.149Z,63.38
2022-09-29T10:49:44.485Z,63.28
2022-09-29T10:55:05.245Z,62.85
2022-09-29T11:00:35.743Z,62.79
2022-09-29T11:05:52.713Z,62.92
2022-09-29T11:11:30.752Z,62.91
2022-09-29T11:16:37.560Z,63.22
2022-09-29T11:22:23.628Z,63.14
2022-09-29T11:27:42.340Z,63.18
2022-09-29T11:33:13.279Z,63.33
2022-09-29T11:38:33.087Z,63.42
2022-09-29T11:44:04.474Z,63.38
2022-09-29T11:49:26.811Z,64.93
2022-09-29T11:54:49.454Z,67.60
2022-09-29T12:00:14.037Z,66.52
2022-09-29T12:05:43.768Z,64.03
2022-09-29T12:11:44.317Z,62.29
2022-09-29T12:16:53.440Z,61.31
2022-09-29T12:22:00.666Z,60.13
2022-09-29T12:27:12.829Z,59.25
2022-09-29T12:32:33.038Z,59.00
2022-09-29T12:38:11.680Z,58.99
2022-09-29T12:43:33.792Z,58.65
2022-09-29T12:48:57.349Z,58.25
2022-09-29T12:54:29.560Z,58.52
2022-09-29T13:00:05.179Z,57.88
2022-09-29T13:05:14.754Z,57.49
2022-09-29T13:10:39.850Z,57.69
2022-09-29T13:16:14.182Z,57.23
2022-09-29T13:21:58.156Z,57.55
2022-09-29T13:27:13.287Z,57.31
2022-09-29T13:32:18.708Z,57.06
2022-09-29T13:37:26.309Z,56.89
2022-09-29T13:42:41.346Z,57.45
2022-09-29T13:47:49.993Z,57.87
2022-09-29T13:52:54.480Z,57.91
2022-09-29T13:57:57.590Z,57.76
2022-09-29T14:03:05.677Z,58.02
2022-09-29T14:08:09.239Z,58.41
2022-09-29T14:13:30.652Z,58.64
2022-09-29T14:18:42.486Z,59.05
2022-09-29T14:23:52.460Z,58.99
2022-09-29T14:28:58.027Z,59.10
2022-09-29T14:34:04.013Z,59.19
2022-09-29T14:39:25.547Z,59.15
2022-09-29T14:44:54.889Z,59.36
2022-09-29T14:50:34.044Z,59.55
2022-09-29T14:56:15.540Z,59.80
2022-09-29T15:01:29.341Z,59.97
2022-09-29T15:06:32.909Z,60.23
2022-09-29T15:11:44.562Z,60.27
2022-09-29T15:16:53.808Z,59.99
2022-09-29T15:22:16.574Z,59.80
2022-09-29T15:27:21.375Z,59.93
2022-09-29T15:32:29.405Z,59.59
2022-09-29T15:37:59.546Z,59.38
2022-09-29T15:43:04.626Z,59.10
2022-09-29T15:48:16.977Z,59.27
2022-09-29T15:53:22.734Z,59.04
2022-09-29T15:58:26.225Z,58.97
2022-09-29T16:03:54.791Z,59.13
2022-09-29T16:09:17.239Z,59.35
2022-09-29T16:14:30.029Z,59.42
2022-09-29T16:19:36.008Z,59.59
2022-09-29T16:24:53.916Z,59.74
2022-09-29T16:30:19.905Z,59.59
2022-09-29T16:35:49.223Z,59.59
2022-09-29T16:40:54.788Z,59.60
2022-09-29T16:46:01.235Z,59.31
2022-09-29T16:51:37.650Z,59.39
2022-09-29T16:56:38.229Z,59.74
2022-09-29T17:01:44.138Z,59.91
2022-09-29T17:06:49.688Z,59.88
2022-09-29T17:11:54.790Z,60.20
2022-09-29T17:16:59.550Z,60.57
2022-09-29T17:22:03.872Z,60.56
2022-09-29T17:27:48.011Z,60.57
2022-09-29T17:32:54.774Z,60.67
2022-09-29T17:37:59.900Z,60.91
2022-09-29T17:43:03.758Z,61.15
2022-09-29T17:48:08.214Z,61.25
2022-09-29T17:53:14.944Z,61.48
2022-09-29T17:58:21.736Z,61.27
2022-09-29T18:03:26.530Z,61.27
2022-09-29T18:08:29.761Z,61.36
2022-09-29T18:13:33.908Z,61.46
2022-09-29T18:18:38.449Z,61.93
2022-09-29T18:23:43.356Z,61.94
2022-09-29T18:28:49.032Z,62.17
2022-09-29T18:33:56.161Z,62.33
2022-09-29T18:39:00.985Z,62.55
2022-09-29T18:44:17.537Z,62.72
2022-09-29T18:49:21.690Z,62.75
2022-09-29T18:54:26.321Z,63.02
2022-09-29T18:59:30.113Z,62.93
2022-09-29T19:04:33.329Z,63.06
2022-09-29T19:09:39.331Z,63.35
2022-09-29T19:14:46.086Z,63.19
2022-09-29T19:19:51.166Z,63.53
2022-09-29T19:24:55.880Z,63.57
2022-09-29T19:30:03.497Z,63.61
2022-09-29T19:35:12.377Z,63.38
2022-09-29T19:40:23.695Z,63.50
2022-09-29T19:45:29.221Z,63.72
2022-09-29T19:50:51.260Z,63.91
2022-09-29T19:55:54.741Z,63.89
2022-09-29T20:01:01.047Z,63.78
2022-09-29T20:06:06.723Z,63.91
2022-09-29T20:11:14.563Z,64.10
2022-09-29T20:16:17.700Z,64.36
2022-09-29T20:21:21.569Z,63.98
2022-09-29T20:26:28.084Z,64.04
2022-09-29T20:31:32.099Z,63.98
2022-09-29T20:36:35.434Z,64.04
2022-09-29T20:41:39.197Z,64.13
2022-09-29T20:46:42.385Z,64.22
2022-09-29T20:51:45.894Z,64.20
2022-09-29T20:56:50.565Z,64.14
2022-09-29T21:01:54.205Z,64.26
2022-09-29T21:06:58.450Z,64.08
2022-09-29T21:12:02.661Z,64.19
2022-09-29T21:17:05.747Z,64.31
2022-09-29T21:22:09.242Z,64.45
2022-09-29T21:27:12.590Z,64.46
2022-09-29T21:32:17.641Z,64.60
2022-09-29T21:37:20.690Z,64.90
2022-09-29T21:42:23.562Z,65.06
2022-09-29T21:47:46.576Z,64.95
2022-09-29T21:52:49.417Z,65.12
2022-09-29T21:57:53.670Z,65.00
2022-09-29T22:45:39.573Z,65.09
2022-09-29T22:50:48.190Z,65.24
2022-09-29T22:55:50.991Z,65.50
2022-09-29T23:01:06.717Z,65.31
2022-09-29T23:06:17.268Z,65.41
2022-09-29T23:11:20.608Z,65.64
2022-09-29T23:16:23.514Z,65.54
2022-09-29T23:21:26.835Z,65.66
2022-09-29T23:26:30.930Z,65.47
2022-09-29T23:31:35.437Z,65.54
2022-09-29T23:36:38.780Z,65.64
2022-09-29T23:41:44.663Z,65.60
2022-09-29T23:46:47.782Z,65.65
2022-09-29T23:51:55.751Z,65.69
2022-09-29T23:56:58.809Z,65.85
